KTOL

Toledo

Airport
ICAO code
KTOL
Summary
ICAO Region
NAM
ICAO Territory
Location

Toledo, Ohio,

Coordinates
41° 35' 10" N , 83° 48' 16" W
Metar
Observation
KTOL 171052Z 36003KT 10SM CLR 17/14 A3009 RMK AO2 SLP188 T01670139
Station
Toledo, Toledo Express Airport
Date/Time
2022-08-17 10:52:00
Wind direction
360°
Wind speed
03 kts
Lowest cloud amount
n/a
Temperature
16.7°C
Dew point
13.9°C
Humidity
83%
Weather condition
n/a

Description

Toledo Express Airport is a joint civil-military airport located 16 km west of the city of Toledo in the extreme Western portion of Lucas County, Ohio, United States. In addition to serving commercial passenger, cargo and general aviation aircraft the airport is also a base for the Ohio Air National Guard.

Climatology

Runways

Designator Length Width Surface Rops
16/34 1707 46 ASP Yes/Yes
7/25 3231 46 ASP Yes/Yes

Airport map

Aerial View

SKYbrary Partners:

Safety knowledge contributed by: